createdAt,value
2017-04-26T04:58:03.659Z,4.42
2017-04-26T04:59:02.966Z,5.25
2017-04-26T05:00:04.312Z,5.48
2017-04-26T05:01:04.452Z,5.83
2017-04-26T05:02:04.387Z,5.85
2017-04-26T05:03:05.829Z,4.95
2017-04-26T05:04:05.909Z,5.70
2017-04-26T05:05:05.325Z,6.77
2017-04-26T05:06:05.467Z,6.45
2017-04-26T05:07:06.700Z,6.28
2017-04-26T05:08:07.733Z,5.55
2017-04-26T05:09:08.417Z,5.33
2017-04-26T05:10:09.003Z,6.47
2017-04-26T05:11:09.165Z,5.70
2017-04-26T05:12:09.990Z,5.23
2017-04-26T05:13:10.343Z,6.43
2017-04-26T05:14:09.826Z,5.58
2017-04-26T05:15:09.854Z,6.52
2017-04-26T05:16:10.325Z,5.13
2017-04-26T05:17:11.746Z,5.28
2017-04-26T05:18:12.392Z,5.27
2017-04-26T05:19:13.308Z,6.18
2017-04-26T05:20:14.485Z,4.40
2017-04-26T05:21:15.034Z,5.38
2017-04-26T05:22:15.836Z,5.92
2017-04-26T05:23:16.555Z,5.98
2017-04-26T05:24:16.087Z,4.60
2017-04-26T05:25:17.213Z,4.95
2017-04-26T05:26:18.031Z,5.55
2017-04-26T05:27:18.928Z,5.85
2017-04-26T05:28:19.029Z,5.33
2017-04-26T05:29:19.630Z,4.95
2017-04-26T05:30:20.044Z,5.15
2017-04-26T05:31:20.390Z,4.83
2017-04-26T05:32:21.330Z,4.98
2017-04-26T05:33:22.283Z,6.17
2017-04-26T05:34:24.463Z,5.18
2017-04-26T05:35:24.886Z,5.60
2017-04-26T05:36:24.370Z,4.95
2017-04-26T05:37:25.491Z,5.25
2017-04-26T05:38:26.223Z,4.97
2017-04-26T05:39:27.843Z,7.93
2017-04-26T05:40:29.207Z,4.70
2017-04-26T05:41:30.780Z,5.25
2017-04-26T05:42:31.833Z,5.12
2017-04-26T05:43:32.969Z,5.08
2017-04-26T05:44:32.922Z,4.73
2017-04-26T05:45:33.183Z,4.25
2017-04-26T05:46:34.907Z,4.32
2017-04-26T05:47:36.206Z,5.00
2017-04-26T05:48:37.649Z,4.30
2017-04-26T05:49:37.251Z,3.88
2017-04-26T05:50:38.484Z,4.80
2017-04-26T05:51:39.946Z,4.52
2017-04-26T05:52:41.131Z,4.68
2017-04-26T05:53:42.660Z,4.20
2017-04-26T05:54:44.131Z,4.72
2017-04-26T05:55:44.723Z,5.07
2017-04-26T05:56:45.036Z,4.85
2017-04-26T05:57:46.544Z,4.67
2017-04-26T05:58:48.682Z,4.48
2017-04-26T05:59:49.343Z,4.67
2017-04-26T06:00:51.757Z,4.55
2017-04-26T06:01:52.444Z,4.47
2017-04-26T06:02:52.229Z,3.92
2017-04-26T06:03:53.182Z,4.80
2017-04-26T06:04:53.806Z,4.23
2017-04-26T06:05:55.742Z,4.45
2017-04-26T06:06:56.135Z,3.72
2017-04-26T06:07:58.399Z,3.68
2017-04-26T06:08:59.776Z,4.58
2017-04-26T06:10:00.479Z,4.48
2017-04-26T06:11:01.826Z,3.87
2017-04-26T06:12:02.048Z,4.35
2017-04-26T06:13:02.100Z,6.47
2017-04-26T06:14:03.290Z,2.97
2017-04-26T06:15:03.822Z,3.15
2017-04-26T06:16:03.604Z,3.98
2017-04-26T06:17:04.484Z,3.75
2017-04-26T06:18:04.469Z,4.15
2017-04-26T06:19:04.743Z,3.35
2017-04-26T06:20:06.889Z,3.95
2017-04-26T06:21:08.303Z,3.05
2017-04-26T06:22:09.150Z,3.52
2017-04-26T06:23:10.408Z,3.55
2017-04-26T06:24:10.332Z,3.33
2017-04-26T06:25:11.429Z,3.47
2017-04-26T06:26:11.065Z,3.21
2017-04-26T06:27:11.868Z,3.12
2017-04-26T06:28:13.084Z,3.30
2017-04-26T06:29:15.235Z,3.42
2017-04-26T06:30:15.871Z,3.53
2017-04-26T06:31:16.604Z,3.70
2017-04-26T06:32:17.444Z,4.23
2017-04-26T06:33:18.201Z,3.00
2017-04-26T06:34:17.807Z,3.12
2017-04-26T06:35:17.077Z,2.93
2017-04-26T06:36:18.139Z,2.28
2017-04-26T06:37:18.667Z,3.00
2017-04-26T06:38:20.839Z,2.65
2017-04-26T06:39:20.388Z,2.89
2017-04-26T06:40:22.210Z,3.03
2017-04-26T06:41:23.832Z,2.46
2017-04-26T06:42:24.830Z,3.27
2017-04-26T06:43:26.225Z,2.48
2017-04-26T06:44:27.322Z,2.37
2017-04-26T06:45:27.763Z,2.65
2017-04-26T06:46:29.051Z,2.51
2017-04-26T06:47:30.258Z,2.70
2017-04-26T06:48:31.179Z,2.43
2017-04-26T06:49:31.299Z,3.71
2017-04-26T06:50:33.071Z,2.49
2017-04-26T06:51:33.989Z,2.96
2017-04-26T06:52:34.815Z,2.57
2017-04-26T06:53:36.602Z,2.37
2017-04-26T06:54:37.730Z,1.99
2017-04-26T06:55:38.813Z,2.30
2017-04-26T06:56:41.005Z,2.22
2017-04-26T06:57:44.330Z,2.40
2017-04-26T06:58:45.034Z,2.52
2017-04-26T06:59:47.869Z,2.89
2017-04-26T07:00:49.108Z,2.60
2017-04-26T07:01:49.781Z,2.08
2017-04-26T07:02:54.826Z,2.57
2017-04-26T07:03:56.127Z,2.43
2017-04-26T07:04:59.264Z,2.32
2017-04-26T07:06:00.299Z,2.05
2017-04-26T07:07:01.462Z,2.05
2017-04-26T07:08:03.334Z,2.52
2017-04-26T07:09:04.229Z,2.27
2017-04-26T07:10:06.661Z,3.07
2017-04-26T07:11:07.851Z,1.42
2017-04-26T07:12:08.851Z,2.13
2017-04-26T07:13:08.213Z,1.93
2017-04-26T07:14:08.176Z,2.07
2017-04-26T07:15:09.350Z,2.17
2017-04-26T07:16:09.666Z,3.08
2017-04-26T07:17:09.445Z,2.15
2017-04-26T07:18:11.167Z,1.78
2017-04-26T07:19:13.049Z,3.05
2017-04-26T07:20:14.678Z,2.88
2017-04-26T07:21:15.110Z,2.57
2017-04-26T07:22:16.008Z,2.87
2017-04-26T07:23:15.317Z,2.60
2017-04-26T07:24:15.603Z,2.30
2017-04-26T07:25:15.927Z,2.75
2017-04-26T07:26:16.848Z,2.68
2017-04-26T07:27:16.132Z,2.82
2017-04-26T07:28:16.736Z,2.08
2017-04-26T07:29:17.281Z,2.28
2017-04-26T07:30:17.971Z,2.17
2017-04-26T07:31:18.617Z,2.30
2017-04-26T07:32:19.549Z,2.87
2017-04-26T07:33:18.930Z,2.47
2017-04-26T07:34:19.663Z,2.32
2017-04-26T07:35:20.129Z,2.50
2017-04-26T07:36:22.144Z,2.52
2017-04-26T07:37:22.379Z,2.20
2017-04-26T07:38:23.043Z,1.88
2017-04-26T07:39:23.571Z,2.33
2017-04-26T07:40:23.926Z,2.47
2017-04-26T07:41:25.189Z,2.53
2017-04-26T07:42:26.967Z,2.23
2017-04-26T07:43:27.563Z,2.97
2017-04-26T07:44:28.778Z,3.48
2017-04-26T07:45:28.979Z,3.10
2017-04-26T07:46:29.552Z,2.78
2017-04-26T07:47:30.159Z,2.93
2017-04-26T07:48:31.493Z,2.37
2017-04-26T07:49:32.759Z,2.60
2017-04-26T07:50:33.153Z,2.15
2017-04-26T07:51:35.044Z,2.52
2017-04-26T07:52:37.783Z,2.20
2017-04-26T07:53:40.136Z,3.22
2017-04-26T07:54:41.088Z,2.13
2017-04-26T07:55:42.185Z,2.15
2017-04-26T07:56:42.293Z,2.92
2017-04-26T07:57:42.533Z,3.23
2017-04-26T07:58:43.112Z,2.42
2017-04-26T07:59:42.564Z,2.47
2017-04-26T08:00:43.706Z,2.22
2017-04-26T08:01:45.261Z,3.10
2017-04-26T08:02:46.350Z,2.93
2017-04-26T08:03:49.426Z,2.00
2017-04-26T08:04:51.026Z,2.47
2017-04-26T08:05:52.374Z,1.70
2017-04-26T08:06:53.691Z,1.70
2017-04-26T08:07:54.211Z,1.43
2017-04-26T08:08:55.245Z,1.10
2017-04-26T08:09:56.229Z,1.78
2017-04-26T08:10:57.470Z,1.82
2017-04-26T08:11:58.811Z,1.75
2017-04-26T08:12:58.551Z,1.80
2017-04-26T08:13:58.688Z,1.68
2017-04-26T08:14:59.379Z,2.15
2017-04-26T08:16:00.481Z,2.60
2017-04-26T08:17:01.209Z,1.80
2017-04-26T08:18:02.042Z,2.38
2017-04-26T08:19:02.486Z,1.62
2017-04-26T08:20:03.113Z,1.90
2017-04-26T08:21:04.139Z,1.62
2017-04-26T08:22:05.371Z,2.23
2017-04-26T08:23:06.326Z,1.73
2017-04-26T08:24:05.636Z,1.58
2017-04-26T08:25:05.291Z,1.48
2017-04-26T08:26:06.527Z,1.53
2017-04-26T08:27:07.651Z,1.85
2017-04-26T08:28:08.609Z,1.45
2017-04-26T08:29:09.111Z,1.50
2017-04-26T08:30:08.930Z,1.75
2017-04-26T08:31:09.585Z,1.98
2017-04-26T08:32:10.603Z,1.67
2017-04-26T08:33:11.467Z,1.42
2017-04-26T08:34:12.484Z,1.67
2017-04-26T08:35:13.871Z,1.53
2017-04-26T08:36:15.391Z,1.77
2017-04-26T08:37:18.646Z,1.45
2017-04-26T08:38:20.332Z,1.60
2017-04-26T08:39:20.144Z,1.90
2017-04-26T08:40:21.308Z,1.60
2017-04-26T08:41:21.451Z,1.00
2017-04-26T08:42:26.527Z,1.50
2017-04-26T08:43:27.482Z,1.68
2017-04-26T08:44:29.226Z,1.37
2017-04-26T08:45:29.584Z,1.75
2017-04-26T08:46:30.577Z,1.73
2017-04-26T08:47:30.925Z,1.70
2017-04-26T08:48:31.770Z,1.75
2017-04-26T08:49:33.128Z,1.25
2017-04-26T08:50:35.064Z,1.62
2017-04-26T08:51:36.388Z,1.75
2017-04-26T08:52:37.087Z,1.80
2017-04-26T08:53:38.017Z,1.42
2017-04-26T08:54:39.003Z,2.43
2017-04-26T08:55:40.334Z,1.80
2017-04-26T08:56:42.133Z,2.37
2017-04-26T08:57:43.275Z,2.30
2017-04-26T08:58:44.047Z,2.80
2017-04-26T08:59:44.875Z,2.27
2017-04-26T09:00:46.120Z,2.40
2017-04-26T09:01:48.003Z,2.25
2017-04-26T09:02:49.548Z,2.33
2017-04-26T09:03:50.765Z,2.22
2017-04-26T09:04:51.321Z,2.12
2017-04-26T09:05:52.108Z,3.10
2017-04-26T09:06:53.367Z,3.25
2017-04-26T09:07:53.324Z,2.40
2017-04-26T09:08:53.865Z,2.20
2017-04-26T09:09:53.979Z,2.22
2017-04-26T09:10:55.723Z,2.08
2017-04-26T09:11:56.885Z,2.00
2017-04-26T09:12:57.511Z,2.12
2017-04-26T09:13:58.143Z,2.58
2017-04-26T09:14:59.589Z,2.32
2017-04-26T09:16:00.382Z,2.30
2017-04-26T09:17:01.318Z,2.30
2017-04-26T09:18:02.237Z,2.73
2017-04-26T09:19:02.325Z,3.07
2017-04-26T09:20:03.423Z,2.33
2017-04-26T09:21:04.709Z,2.30
2017-04-26T09:22:05.511Z,2.85
2017-04-26T09:23:06.405Z,2.42
2017-04-26T09:24:07.305Z,2.63
2017-04-26T09:25:07.991Z,2.57
2017-04-26T09:26:08.676Z,3.55
2017-04-26T09:27:09.595Z,2.75
2017-04-26T09:28:10.552Z,2.97
2017-04-26T09:29:11.696Z,2.95
2017-04-26T09:30:12.858Z,2.70
2017-04-26T09:31:12.628Z,2.68
2017-04-26T09:32:13.438Z,2.12
2017-04-26T09:33:14.578Z,3.25
2017-04-26T09:34:15.994Z,2.95
2017-04-26T09:35:16.625Z,2.75
2017-04-26T09:36:17.820Z,2.62
2017-04-26T09:37:18.573Z,2.40
2017-04-26T09:38:20.587Z,2.50
2017-04-26T09:39:22.110Z,2.12
2017-04-26T09:40:24.917Z,1.98
2017-04-26T09:41:25.836Z,2.43
2017-04-26T09:42:25.911Z,2.80
2017-04-26T09:43:27.074Z,2.45
2017-04-26T09:44:28.391Z,1.80
2017-04-26T09:45:29.082Z,1.60
2017-04-26T09:46:30.067Z,1.95
2017-04-26T09:47:30.716Z,2.55
2017-04-26T09:48:31.886Z,2.53
2017-04-26T09:49:32.586Z,2.53
2017-04-26T09:50:34.798Z,2.58
2017-04-26T09:51:36.511Z,2.53
2017-04-26T09:52:38.139Z,2.20
2017-04-26T09:53:39.938Z,2.32
2017-04-26T09:54:41.133Z,1.92
2017-04-26T09:55:42.456Z,2.37
2017-04-26T09:56:43.163Z,2.18
2017-04-26T09:57:43.979Z,2.08
2017-04-26T09:58:45.279Z,1.97
2017-04-26T09:59:46.269Z,2.55
2017-04-26T10:00:49.571Z,3.02
2017-04-26T10:01:50.211Z,2.30
2017-04-26T10:02:51.287Z,1.37
2017-04-26T10:03:50.765Z,1.55
2017-04-26T10:04:51.242Z,1.98
2017-04-26T10:05:51.809Z,2.20
2017-04-26T10:06:53.070Z,1.93
2017-04-26T10:07:54.279Z,1.93
2017-04-26T10:08:56.699Z,1.90
2017-04-26T10:09:58.057Z,2.10
2017-04-26T10:10:58.684Z,1.85
2017-04-26T10:11:58.661Z,2.28
2017-04-26T10:13:00.445Z,2.10
2017-04-26T10:14:01.394Z,2.27
2017-04-26T10:15:00.981Z,2.25
2017-04-26T10:16:02.065Z,1.92
2017-04-26T10:17:03.046Z,2.33
2017-04-26T10:18:04.149Z,2.05
2017-04-26T10:19:06.129Z,2.20
2017-04-26T10:20:07.649Z,2.25
2017-04-26T10:21:08.629Z,2.20
2017-04-26T10:22:09.828Z,2.88
2017-04-26T10:23:12.048Z,2.12
2017-04-26T10:24:12.948Z,2.70
2017-04-26T10:25:14.326Z,2.10
2017-04-26T10:26:15.587Z,2.37
2017-04-26T10:27:16.363Z,2.25
2017-04-26T10:28:17.448Z,1.88
2017-04-26T10:29:17.470Z,2.07
2017-04-26T10:30:20.162Z,2.08
2017-04-26T10:31:19.984Z,1.87
2017-04-26T10:32:20.369Z,1.75
2017-04-26T10:33:20.649Z,2.20
2017-04-26T10:34:21.673Z,1.55
2017-04-26T10:35:23.412Z,1.85
2017-04-26T10:36:23.906Z,2.05
2017-04-26T10:37:25.825Z,1.58
2017-04-26T10:38:26.545Z,1.88
2017-04-26T10:39:28.731Z,1.77
2017-04-26T10:40:30.589Z,1.53
2017-04-26T10:41:31.306Z,2.07
2017-04-26T10:42:33.567Z,1.73
2017-04-26T10:43:32.291Z,1.40
2017-04-26T10:44:33.488Z,2.37
2017-04-26T10:45:34.825Z,1.63
2017-04-26T10:46:36.166Z,2.20
2017-04-26T10:47:38.925Z,1.87
2017-04-26T10:48:41.151Z,1.73
2017-04-26T10:49:41.104Z,1.52
2017-04-26T10:50:42.057Z,1.90
2017-04-26T10:51:43.782Z,1.63
2017-04-26T10:52:46.291Z,2.12
2017-04-26T10:53:47.560Z,2.75
2017-04-26T10:54:48.689Z,2.37
2017-04-26T10:55:50.028Z,2.23
2017-04-26T10:56:51.347Z,2.00
2017-04-26T10:57:52.425Z,2.32
2017-04-26T10:58:54.235Z,2.02
2017-04-26T10:59:55.775Z,1.70
2017-04-26T11:00:57.381Z,1.80
2017-04-26T11:01:58.477Z,1.60
2017-04-26T11:02:58.571Z,1.08
2017-04-26T11:03:58.681Z,1.25
2017-04-26T11:04:59.555Z,2.40
2017-04-26T11:06:00.652Z,1.25
2017-04-26T11:07:00.574Z,1.50
2017-04-26T11:08:02.020Z,1.50
2017-04-26T11:09:03.928Z,1.70
2017-04-26T11:10:05.543Z,1.42
2017-04-26T11:11:06.661Z,1.48
2017-04-26T11:12:07.643Z,1.60
2017-04-26T11:13:08.369Z,1.33
2017-04-26T11:14:09.708Z,1.08
2017-04-26T11:15:10.374Z,1.20
2017-04-26T11:16:18.507Z,1.17
2017-04-26T11:17:20.319Z,1.20
2017-04-26T11:18:24.727Z,1.45
2017-04-26T11:19:27.617Z,0.90
2017-04-26T11:20:28.717Z,1.23
2017-04-26T11:21:35.687Z,1.52
2017-04-26T11:22:37.156Z,1.30
2017-04-26T11:23:44.349Z,1.20
2017-04-26T11:24:53.855Z,1.07
2017-04-26T11:25:54.387Z,1.30
2017-04-26T11:26:59.115Z,0.87
2017-04-26T11:28:01.485Z,0.98
2017-04-26T11:29:04.456Z,1.27
2017-04-26T11:30:05.086Z,1.67
2017-04-26T11:31:05.108Z,1.38
2017-04-26T11:32:04.326Z,1.75
2017-04-26T11:33:04.125Z,2.20
2017-04-26T11:34:04.655Z,1.52
2017-04-26T11:35:04.676Z,1.23
2017-04-26T11:36:05.116Z,1.60
2017-04-26T11:37:05.776Z,1.52
2017-04-26T11:38:07.377Z,1.32
2017-04-26T11:39:08.957Z,1.42
2017-04-26T11:40:10.095Z,1.10
2017-04-26T11:41:12.726Z,1.23
2017-04-26T11:42:18.957Z,1.08
2017-04-26T11:43:23.465Z,1.10
2017-04-26T11:44:25.996Z,1.08
2017-04-26T11:45:32.925Z,1.07
2017-04-26T11:46:35.767Z,0.92
2017-04-26T11:47:35.206Z,1.38
2017-04-26T11:48:39.665Z,1.33
2017-04-26T11:49:40.307Z,1.65
2017-04-26T11:50:40.257Z,1.85
2017-04-26T11:51:40.457Z,1.05
2017-04-26T11:52:40.669Z,1.53
2017-04-26T11:53:42.136Z,0.95
2017-04-26T11:54:41.636Z,0.80
2017-04-26T11:55:41.725Z,0.95
2017-04-26T11:56:43.116Z,1.02
2017-04-26T11:57:42.825Z,1.03
2017-04-26T11:58:50.771Z,0.97
2017-04-26T11:59:51.516Z,1.30
2017-04-26T12:00:52.636Z,0.87
2017-04-26T12:01:52.576Z,1.17
2017-04-26T12:02:53.118Z,1.05
2017-04-26T12:03:52.577Z,1.17
2017-04-26T12:04:51.938Z,1.10
2017-04-26T12:05:52.161Z,1.20
2017-04-26T12:06:51.658Z,1.38
2017-04-26T12:07:52.059Z,1.22
2017-04-26T12:08:53.478Z,0.89
2017-04-26T12:09:53.454Z,1.08
2017-04-26T12:10:55.841Z,1.13
2017-04-26T12:11:57.211Z,1.23
2017-04-26T12:12:57.711Z,1.40
2017-04-26T12:13:57.631Z,1.30
2017-04-26T12:14:58.347Z,1.01
2017-04-26T12:16:00.135Z,1.10
2017-04-26T12:17:03.029Z,0.97
2017-04-26T12:18:02.983Z,1.25
2017-04-26T12:19:02.684Z,1.20
2017-04-26T12:20:02.385Z,0.98
2017-04-26T12:21:02.143Z,1.00
2017-04-26T12:22:03.604Z,1.00
2017-04-26T12:23:03.344Z,1.00
2017-04-26T12:24:02.943Z,1.30
2017-04-26T12:25:02.324Z,1.16
2017-04-26T12:26:01.944Z,1.01
2017-04-26T12:27:01.824Z,1.28
2017-04-26T12:28:02.343Z,1.31
2017-04-26T12:29:02.084Z,1.37
2017-04-26T12:30:01.744Z,1.46
2017-04-26T12:31:01.513Z,6.41
2017-04-26T12:32:01.409Z,1.20
2017-04-26T12:33:01.184Z,1.20
2017-04-26T12:34:00.856Z,1.39
2017-04-26T12:35:00.284Z,1.01
2017-04-26T12:35:59.903Z,1.14
2017-04-26T12:36:59.264Z,1.17
2017-04-26T12:37:58.843Z,1.00
2017-04-26T12:38:58.104Z,1.14
2017-04-26T12:39:57.403Z,1.04
2017-04-26T12:40:57.043Z,1.01
2017-04-26T12:41:57.343Z,1.26
2017-04-26T12:42:56.468Z,1.17
2017-04-26T12:43:56.003Z,1.03
2017-04-26T12:44:55.365Z,1.33
2017-04-26T12:45:54.805Z,1.13
2017-04-26T12:46:54.462Z,1.03
2017-04-26T12:47:54.503Z,1.17
2017-04-26T12:49:01.183Z,1.36
2017-04-26T12:50:00.903Z,0.95
2017-04-26T12:51:00.203Z,1.22
2017-04-26T12:51:59.624Z,1.20
2017-04-26T12:52:58.964Z,1.03
2017-04-26T12:53:58.523Z,1.47
2017-04-26T12:54:58.004Z,1.02
2017-04-26T12:55:57.444Z,1.13
2017-04-26T12:56:57.065Z,1.25
2017-04-26T12:57:57.044Z,1.18
2017-04-26T12:58:57.003Z,1.15
2017-04-26T12:59:56.483Z,1.17
2017-04-26T13:00:55.843Z,1.23
2017-04-26T13:01:56.127Z,1.12
2017-04-26T13:02:55.523Z,1.35
2017-04-26T13:03:55.644Z,1.22
2017-04-26T13:04:55.263Z,1.55
2017-04-26T13:05:54.944Z,1.70
2017-04-26T13:06:54.284Z,1.00
2017-04-26T13:07:53.463Z,1.43
2017-04-26T13:08:52.683Z,1.32
2017-04-26T13:09:53.204Z,1.23
2017-04-26T13:10:52.904Z,1.63
2017-04-26T13:11:52.224Z,1.00
2017-04-26T13:12:52.423Z,1.05
2017-04-26T13:13:52.143Z,1.03
2017-04-26T13:14:52.203Z,1.40
2017-04-26T13:15:51.464Z,1.23
2017-04-26T13:16:50.804Z,1.08
2017-04-26T13:17:49.984Z,1.03
2017-04-26T13:18:49.584Z,1.40
2017-04-26T13:19:50.404Z,1.20
2017-04-26T13:20:49.844Z,1.30
2017-04-26T13:21:49.524Z,1.03
2017-04-26T13:22:49.765Z,1.25
2017-04-26T13:23:50.384Z,1.02
2017-04-26T13:24:50.864Z,1.20
2017-04-26T13:25:50.424Z,1.30
2017-04-26T13:26:50.423Z,1.20
2017-04-26T13:27:49.964Z,1.75
2017-04-26T13:28:49.644Z,1.52
2017-04-26T13:29:49.764Z,1.78
2017-04-26T13:30:49.445Z,1.72
2017-04-26T13:31:48.904Z,1.43
2017-04-26T13:32:48.506Z,1.48
2017-04-26T13:33:48.024Z,1.83
2017-04-26T13:34:47.405Z,1.60
2017-04-26T13:35:47.184Z,1.78
2017-04-26T13:36:46.469Z,2.17
2017-04-26T13:37:45.805Z,1.83
2017-04-26T13:38:45.007Z,2.17
2017-04-26T13:39:44.324Z,2.40
2017-04-26T13:40:44.164Z,2.32
2017-04-26T13:41:43.584Z,3.55
2017-04-26T13:42:43.145Z,2.25
2017-04-26T13:43:42.423Z,1.88
2017-04-26T13:44:42.087Z,2.08
2017-04-26T13:45:41.784Z,2.17
2017-04-26T13:46:41.125Z,1.70
2017-04-26T13:47:40.464Z,1.62
2017-04-26T13:48:39.684Z,1.80
2017-04-26T13:49:39.124Z,1.87
2017-04-26T13:50:38.664Z,1.70
2017-04-26T13:51:37.984Z,1.75
2017-04-26T13:52:37.384Z,2.00
2017-04-26T13:53:37.507Z,1.83
2017-04-26T13:54:36.803Z,1.70
2017-04-26T13:55:36.505Z,1.52
2017-04-26T13:56:36.925Z,2.02
2017-04-26T13:57:36.285Z,1.75
2017-04-26T13:58:35.864Z,1.72
2017-04-26T13:59:35.626Z,2.03
2017-04-26T14:00:35.384Z,2.32
2017-04-26T14:01:36.265Z,1.67
2017-04-26T14:02:36.126Z,2.45
2017-04-26T14:03:36.065Z,1.73
2017-04-26T14:04:35.484Z,1.80
2017-04-26T14:05:35.005Z,1.52
2017-04-26T14:06:34.564Z,2.02
2017-04-26T14:07:34.203Z,1.80
2017-04-26T14:08:33.984Z,2.08
2017-04-26T14:09:33.424Z,1.40
2017-04-26T14:10:33.283Z,1.93
2017-04-26T14:11:32.844Z,2.05
2017-04-26T14:12:32.844Z,2.38
2017-04-26T14:13:34.044Z,1.97
2017-04-26T14:14:34.204Z,2.65
2017-04-26T14:15:33.645Z,2.23
2017-04-26T14:16:33.187Z,1.63
2017-04-26T14:17:32.643Z,1.83
2017-04-26T14:18:32.705Z,2.03
2017-04-26T14:19:32.805Z,1.63
2017-04-26T14:20:32.824Z,1.45
2017-04-26T14:21:32.346Z,1.68
2017-04-26T14:22:35.144Z,1.92
2017-04-26T14:23:34.926Z,1.93
2017-04-26T14:24:34.545Z,1.83
2017-04-26T14:25:34.724Z,1.75
2017-04-26T14:26:34.463Z,2.23
2017-04-26T14:27:35.805Z,1.87
2017-04-26T14:28:35.984Z,2.13
2017-04-26T14:29:35.404Z,1.74
2017-04-26T14:30:35.327Z,1.83
2017-04-26T14:31:34.745Z,2.13
2017-04-26T14:32:34.045Z,2.38
2017-04-26T14:33:33.504Z,3.93
2017-04-26T14:34:32.904Z,2.58
2017-04-26T14:35:32.284Z,2.85
2017-04-26T14:36:31.775Z,2.23
2017-04-26T14:37:31.223Z,1.72
2017-04-26T14:38:30.704Z,2.27
2017-04-26T14:39:30.585Z,2.95
2017-04-26T14:40:30.124Z,2.45
2017-04-26T14:41:29.384Z,2.40
2017-04-26T14:42:28.885Z,1.94
2017-04-26T14:43:28.385Z,1.89
2017-04-26T14:44:27.984Z,1.95
2017-04-26T14:45:28.044Z,1.87
2017-04-26T14:46:27.964Z,2.00
2017-04-26T14:47:27.365Z,1.59
2017-04-26T14:48:27.185Z,1.97
2017-04-26T14:49:26.564Z,1.52
2017-04-26T14:50:25.964Z,2.12
2017-04-26T14:51:25.724Z,1.57
2017-04-26T14:52:25.085Z,1.70
2017-04-26T14:53:24.645Z,2.32
2017-04-26T14:54:25.045Z,2.33
2017-04-26T14:55:25.764Z,2.18
2017-04-26T14:56:25.464Z,3.40
2017-04-26T14:57:24.787Z,2.80
2017-04-26T14:58:24.344Z,2.20
2017-04-26T14:59:23.983Z,2.48
2017-04-26T15:00:24.905Z,2.28
2017-04-26T15:01:24.144Z,2.20
2017-04-26T15:02:24.304Z,2.67
2017-04-26T15:03:24.903Z,1.77
2017-04-26T15:04:24.285Z,1.67
2017-04-26T15:05:23.684Z,3.42
2017-04-26T15:06:24.943Z,2.15
2017-04-26T15:07:24.384Z,1.88
2017-04-26T15:08:24.024Z,1.48
2017-04-26T15:09:23.724Z,1.80
2017-04-26T15:10:23.484Z,2.15
2017-04-26T15:11:23.984Z,2.48
2017-04-26T15:12:23.943Z,2.00
2017-04-26T15:13:24.765Z,1.62
2017-04-26T15:14:26.086Z,1.80
2017-04-26T15:15:28.997Z,1.38
2017-04-26T15:16:31.925Z,1.93
2017-04-26T15:17:33.952Z,1.67
2017-04-26T15:18:34.543Z,1.83
2017-04-26T15:19:36.370Z,1.52
2017-04-26T15:20:37.410Z,1.48
2017-04-26T15:21:40.205Z,1.52
2017-04-26T15:22:41.485Z,1.52
2017-04-26T15:23:44.646Z,1.82
2017-04-26T15:24:46.931Z,1.40
2017-04-26T15:25:50.174Z,1.65
2017-04-26T15:26:52.384Z,1.37
2017-04-26T15:27:54.193Z,1.92
2017-04-26T15:28:59.186Z,1.88
2017-04-26T15:30:01.320Z,1.77
2017-04-26T15:31:03.635Z,1.60
2017-04-26T15:32:04.916Z,1.78
2017-04-26T15:33:05.446Z,1.92
2017-04-26T15:34:06.971Z,3.03
2017-04-26T15:35:09.786Z,2.15
2017-04-26T15:36:12.009Z,1.77
2017-04-26T15:37:13.306Z,2.10
2017-04-26T15:38:14.566Z,2.10
2017-04-26T15:39:16.699Z,2.47
